createdAt,value
2023-03-22T00:01:44.254Z,33.77
2023-03-22T00:04:13.444Z,31.77
2023-03-22T00:06:44.099Z,31.73
2023-03-22T00:09:14.547Z,31.13
2023-03-22T00:11:43.753Z,31.57
2023-03-22T00:14:13.088Z,31.10
2023-03-22T00:16:42.004Z,29.77
2023-03-22T00:19:11.683Z,29.53
2023-03-22T00:21:40.678Z,29.37
2023-03-22T00:24:10.934Z,29.57
2023-03-22T00:26:42.264Z,29.07
2023-03-22T00:29:11.372Z,29.77
2023-03-22T00:31:41.511Z,28.33
2023-03-22T00:34:10.733Z,29.40
2023-03-22T00:36:41.398Z,28.97
2023-03-22T00:39:10.351Z,30.33
2023-03-22T00:41:40.869Z,31.97
2023-03-22T00:44:11.158Z,31.17
2023-03-22T00:46:40.405Z,29.27
2023-03-22T00:49:10.061Z,29.13
2023-03-22T00:51:39.179Z,30.00
2023-03-22T00:54:08.623Z,27.63
2023-03-22T00:56:37.952Z,31.87
2023-03-22T00:59:15.501Z,29.97
2023-03-22T01:01:45.729Z,31.40
2023-03-22T01:04:18.671Z,31.77
2023-03-22T01:06:48.415Z,28.77
2023-03-22T01:09:17.748Z,31.43
2023-03-22T01:11:48.361Z,31.83
2023-03-22T01:14:19.915Z,32.07
2023-03-22T01:16:49.652Z,30.30
2023-03-22T01:19:18.749Z,29.73
2023-03-22T01:21:47.794Z,31.27
2023-03-22T01:24:17.361Z,29.93
2023-03-22T01:26:46.828Z,27.90
2023-03-22T01:29:16.045Z,27.77
2023-03-22T01:31:47.361Z,29.17
2023-03-22T01:34:16.356Z,27.03
2023-03-22T01:36:45.569Z,28.97
2023-03-22T01:39:15.374Z,26.33
2023-03-22T01:41:47.238Z,26.30
2023-03-22T01:44:21.141Z,28.10
2023-03-22T01:46:53.826Z,27.77
2023-03-22T01:49:27.622Z,27.80
2023-03-22T01:51:59.317Z,26.53
2023-03-22T01:54:56.193Z,26.47
2023-03-22T01:57:34.186Z,25.37
2023-03-22T02:00:04.816Z,26.47
2023-03-22T02:02:53.328Z,25.03
2023-03-22T02:05:30.816Z,26.23
2023-03-22T02:08:02.905Z,26.63
2023-03-22T02:10:40.079Z,26.30
2023-03-22T02:13:30.520Z,26.57
2023-03-22T02:16:33.146Z,26.67
2023-03-22T02:19:42.860Z,26.50
2023-03-22T02:22:40.078Z,25.77
2023-03-22T02:25:29.476Z,27.57
2023-03-22T02:28:30.263Z,27.40
2023-03-22T02:31:18.578Z,27.70
2023-03-22T02:34:16.292Z,26.10
2023-03-22T02:37:22.183Z,27.50
2023-03-22T02:39:57.533Z,24.60
2023-03-22T02:42:38.545Z,27.00
2023-03-22T02:45:16.068Z,28.60
2023-03-22T02:47:55.543Z,26.60
2023-03-22T02:50:30.667Z,26.87
2023-03-22T02:53:06.730Z,25.27
2023-03-22T02:55:42.820Z,26.77
2023-03-22T02:58:17.444Z,26.30
2023-03-22T03:00:50.275Z,26.33
2023-03-22T03:03:20.489Z,25.90
2023-03-22T03:05:56.545Z,25.33
2023-03-22T03:08:27.763Z,26.77
2023-03-22T03:10:59.207Z,26.13
2023-03-22T03:13:29.812Z,26.27
2023-03-22T03:16:02.255Z,25.83
2023-03-22T03:18:45.000Z,25.43
2023-03-22T03:21:30.767Z,26.77
2023-03-22T03:24:10.664Z,27.60
2023-03-22T03:26:50.954Z,26.37
2023-03-22T03:29:29.703Z,28.70
2023-03-22T03:32:06.993Z,26.07
2023-03-22T03:34:46.122Z,26.27
2023-03-22T03:37:19.826Z,25.63
2023-03-22T03:39:54.229Z,27.43
2023-03-22T03:42:28.574Z,27.83
2023-03-22T03:44:59.111Z,26.83
2023-03-22T03:47:30.325Z,26.97
2023-03-22T03:49:59.658Z,26.13
2023-03-22T03:52:30.069Z,26.10
2023-03-22T03:54:59.119Z,28.20
2023-03-22T03:57:35.300Z,27.97
2023-03-22T04:00:05.469Z,27.17
2023-03-22T04:02:43.125Z,25.73
2023-03-22T04:05:24.409Z,26.57
2023-03-22T04:07:55.465Z,28.53
2023-03-22T04:10:25.156Z,28.70
2023-03-22T04:12:56.098Z,29.23
2023-03-22T04:15:26.017Z,26.43
2023-03-22T04:17:58.500Z,26.60
2023-03-22T04:20:32.040Z,23.70
2023-03-22T04:23:02.696Z,26.33
2023-03-22T04:25:34.281Z,26.87
2023-03-22T04:28:11.299Z,25.63
2023-03-22T04:30:40.903Z,26.20
2023-03-22T04:33:28.193Z,26.77
2023-03-22T04:36:16.392Z,25.67
2023-03-22T04:39:12.780Z,27.60
2023-03-22T04:41:46.074Z,27.63
2023-03-22T04:44:16.919Z,26.70
2023-03-22T04:46:51.186Z,27.80
2023-03-22T04:49:20.820Z,25.87
2023-03-22T04:51:49.638Z,26.27
2023-03-22T04:54:28.708Z,26.33
2023-03-22T04:56:58.249Z,26.30
2023-03-22T04:59:31.249Z,27.27
2023-03-22T05:02:01.918Z,26.33
2023-03-22T05:04:38.069Z,30.67
2023-03-22T05:07:15.628Z,30.83
2023-03-22T05:09:51.079Z,30.53
2023-03-22T05:12:20.521Z,28.87
2023-03-22T05:15:13.747Z,27.47
2023-03-22T05:17:42.933Z,30.77
2023-03-22T05:20:14.189Z,30.57
2023-03-22T05:22:46.334Z,33.13
2023-03-22T05:25:16.577Z,33.50
2023-03-22T05:27:50.690Z,33.47
2023-03-22T05:30:36.452Z,32.27
2023-03-22T05:33:35.138Z,31.43
2023-03-22T05:36:06.334Z,30.87
2023-03-22T05:38:42.151Z,29.87
2023-03-22T05:41:11.686Z,31.03
2023-03-22T05:43:40.924Z,30.17
2023-03-22T05:46:14.240Z,30.23
2023-03-22T05:48:52.420Z,30.70
2023-03-22T05:51:21.517Z,30.43
2023-03-22T05:53:54.504Z,29.20
2023-03-22T05:56:30.565Z,29.77
2023-03-22T05:59:07.361Z,31.60
2023-03-22T06:01:39.622Z,29.80
2023-03-22T06:04:35.073Z,30.40
2023-03-22T06:07:10.690Z,31.83
2023-03-22T06:09:58.269Z,33.83
2023-03-22T06:12:31.912Z,33.73
2023-03-22T06:15:09.575Z,37.33
2023-03-22T06:18:15.803Z,34.17
2023-03-22T06:20:48.909Z,35.30
2023-03-22T06:23:23.360Z,37.07
2023-03-22T06:25:52.646Z,37.10
2023-03-22T06:28:22.017Z,37.83
2023-03-22T06:30:53.553Z,39.90
2023-03-22T06:33:42.736Z,38.87
2023-03-22T06:36:24.304Z,38.03
2023-03-22T06:39:26.244Z,39.40
2023-03-22T06:41:56.903Z,38.63
2023-03-22T06:44:26.282Z,40.17
2023-03-22T06:47:07.871Z,39.57
2023-03-22T06:49:55.561Z,35.80
2023-03-22T06:52:29.479Z,35.17
2023-03-22T06:54:59.693Z,34.87
2023-03-22T06:57:29.091Z,32.17
2023-03-22T06:59:58.628Z,30.70
2023-03-22T07:02:27.709Z,30.83
2023-03-22T07:05:16.895Z,30.83
2023-03-22T07:07:46.510Z,29.60
2023-03-22T07:10:15.814Z,25.83
2023-03-22T07:12:46.204Z,26.97
2023-03-22T07:15:26.088Z,27.83
2023-03-22T07:18:08.885Z,28.20
2023-03-22T07:20:44.405Z,27.40
2023-03-22T07:23:21.656Z,25.27
2023-03-22T07:25:56.320Z,25.47
2023-03-22T07:28:32.920Z,25.50
2023-03-22T07:31:05.644Z,25.33
2023-03-22T07:33:46.506Z,24.37
2023-03-22T07:36:17.435Z,24.40
2023-03-22T07:38:47.136Z,24.27
2023-03-22T07:41:24.761Z,24.70
2023-03-22T07:44:16.683Z,25.00
2023-03-22T07:46:54.772Z,23.07
2023-03-22T07:49:28.854Z,25.30
2023-03-22T07:52:07.494Z,25.07
2023-03-22T07:54:38.081Z,26.33
2023-03-22T07:57:17.228Z,29.50
2023-03-22T07:59:52.345Z,28.70
2023-03-22T08:02:21.745Z,27.23
2023-03-22T08:04:56.683Z,25.77
2023-03-22T08:07:47.515Z,23.03
2023-03-22T08:10:17.114Z,20.20
2023-03-22T08:12:46.523Z,19.60
2023-03-22T08:15:23.598Z,18.40
2023-03-22T08:17:53.499Z,17.93
2023-03-22T08:20:34.824Z,18.33
2023-03-22T08:23:14.619Z,19.40
2023-03-22T08:26:16.546Z,18.88
2023-03-22T08:28:45.852Z,18.52
2023-03-22T08:31:16.062Z,19.20
2023-03-22T08:33:47.403Z,18.08
2023-03-22T08:36:19.499Z,17.10
2023-03-22T08:38:58.487Z,17.50
2023-03-22T08:41:41.053Z,15.38
2023-03-22T08:44:10.621Z,14.73
2023-03-22T08:46:40.159Z,14.85
2023-03-22T08:49:10.782Z,14.98
2023-03-22T08:52:07.004Z,15.13
2023-03-22T08:54:54.953Z,14.73
2023-03-22T08:57:43.044Z,15.27
2023-03-22T09:00:47.647Z,16.63
2023-03-22T09:03:40.112Z,15.52
2023-03-22T09:06:11.100Z,15.07
2023-03-22T09:08:43.249Z,16.20
2023-03-22T09:11:18.163Z,16.20
2023-03-22T09:13:54.723Z,16.15
2023-03-22T09:16:24.424Z,17.60
2023-03-22T09:18:53.637Z,17.30
2023-03-22T09:21:24.464Z,15.73
2023-03-22T09:24:11.064Z,16.13
2023-03-22T09:26:50.002Z,15.05
2023-03-22T09:29:21.275Z,16.33
2023-03-22T09:31:50.919Z,15.23
2023-03-22T09:34:24.158Z,15.93
2023-03-22T09:36:54.912Z,14.20
2023-03-22T09:39:29.226Z,13.23
2023-03-22T09:42:06.221Z,13.30
2023-03-22T09:44:38.496Z,13.63
2023-03-22T09:47:18.253Z,12.82
2023-03-22T09:49:53.676Z,13.90
2023-03-22T09:52:23.468Z,12.30
2023-03-22T09:54:53.426Z,12.48
2023-03-22T09:57:34.063Z,12.73
2023-03-22T10:00:14.942Z,12.45
2023-03-22T10:02:54.640Z,14.07
2023-03-22T10:05:31.321Z,13.50
2023-03-22T10:08:34.964Z,13.50
2023-03-22T10:11:04.695Z,11.73
2023-03-22T10:13:42.153Z,13.38
2023-03-22T10:16:18.609Z,13.13
2023-03-22T10:18:53.450Z,13.30
2023-03-22T10:21:23.198Z,12.10
2023-03-22T10:23:56.956Z,14.23
2023-03-22T10:26:31.173Z,12.45
2023-03-22T10:29:04.221Z,13.13
2023-03-22T10:31:35.570Z,11.98
2023-03-22T10:34:07.958Z,12.93
2023-03-22T10:36:40.157Z,11.93
2023-03-22T10:39:17.169Z,10.38
2023-03-22T10:41:47.890Z,11.50
2023-03-22T10:44:21.243Z,11.05
2023-03-22T10:46:52.666Z,11.82
2023-03-22T10:49:26.569Z,10.38
2023-03-22T10:52:00.338Z,11.48
2023-03-22T10:54:31.238Z,10.93
2023-03-22T10:57:00.228Z,11.02
2023-03-22T10:59:49.193Z,11.48
2023-03-22T11:02:21.738Z,11.43
2023-03-22T11:04:53.213Z,11.25
2023-03-22T11:07:35.439Z,11.80
2023-03-22T11:10:24.007Z,11.60
2023-03-22T11:12:56.706Z,11.68
2023-03-22T11:15:30.805Z,10.88
2023-03-22T11:18:02.584Z,10.40
2023-03-22T11:20:32.391Z,9.63
2023-03-22T11:23:05.495Z,9.80
2023-03-22T11:25:37.899Z,10.25
2023-03-22T11:28:17.305Z,10.10
2023-03-22T11:31:01.914Z,9.52
2023-03-22T11:33:32.103Z,9.45
2023-03-22T11:36:02.808Z,10.05
2023-03-22T11:38:38.461Z,10.32
2023-03-22T11:41:11.402Z,10.65
2023-03-22T11:43:44.695Z,11.68
2023-03-22T11:46:17.771Z,10.95
2023-03-22T11:48:48.449Z,11.30
2023-03-22T11:51:20.468Z,10.23
2023-03-22T11:53:50.809Z,11.07
2023-03-22T11:56:29.370Z,11.90
2023-03-22T11:59:01.464Z,12.02
2023-03-22T12:01:38.308Z,11.90
2023-03-22T12:04:13.534Z,11.75
2023-03-22T12:06:43.480Z,11.32
2023-03-22T12:09:26.151Z,9.05
2023-03-22T12:12:04.431Z,9.23
2023-03-22T12:14:41.029Z,9.45
2023-03-22T12:17:18.120Z,9.82
2023-03-22T12:20:06.391Z,8.90
2023-03-22T12:22:37.408Z,10.23
2023-03-22T12:25:13.439Z,9.77
2023-03-22T12:27:46.875Z,8.27
2023-03-22T12:30:19.764Z,9.15
2023-03-22T12:32:53.922Z,9.38
2023-03-22T12:35:26.743Z,10.63
2023-03-22T12:37:59.988Z,9.13
2023-03-22T12:40:33.267Z,8.50
2023-03-22T12:43:09.426Z,8.65
2023-03-22T12:45:43.005Z,6.97
2023-03-22T12:48:18.712Z,7.57
2023-03-22T12:50:52.763Z,6.97
2023-03-22T12:53:23.091Z,6.20
2023-03-22T12:55:53.104Z,6.88
2023-03-22T12:58:25.762Z,6.10
2023-03-22T13:00:58.615Z,5.60
2023-03-22T13:03:32.892Z,6.10
2023-03-22T13:06:06.046Z,5.20
2023-03-22T13:09:13.654Z,5.10
2023-03-22T13:11:43.177Z,5.03
2023-03-22T13:14:19.889Z,4.75
2023-03-22T13:17:00.573Z,5.05
2023-03-22T13:19:36.633Z,4.38
2023-03-22T13:22:27.733Z,5.47
2023-03-22T13:25:02.402Z,4.85
2023-03-22T13:27:45.424Z,4.53
2023-03-22T13:30:24.436Z,4.25
2023-03-22T13:32:56.838Z,4.32
2023-03-22T13:35:29.855Z,4.15
2023-03-22T13:38:05.103Z,4.57
2023-03-22T13:40:38.353Z,4.10
2023-03-22T13:43:22.517Z,3.88
2023-03-22T13:46:13.371Z,3.85
2023-03-22T13:48:54.621Z,4.00
2023-03-22T13:51:32.826Z,3.70
2023-03-22T13:54:09.002Z,3.83
2023-03-22T13:56:57.576Z,3.50
2023-03-22T13:59:31.481Z,3.78
2023-03-22T14:02:05.860Z,5.25
2023-03-22T14:04:41.383Z,4.68
2023-03-22T14:07:22.876Z,4.25
2023-03-22T14:09:54.799Z,4.55
2023-03-22T14:12:30.748Z,4.10
2023-03-22T14:15:03.187Z,3.83
2023-03-22T14:17:37.387Z,3.80
2023-03-22T14:20:10.763Z,4.13
